Time;durP1;ratioP1;P1;durP2;ratioP2;P2;SDS_P1;SDS_P2;PMS_P1;PMS_P2;Temp;Humidity;BMP_temperature;BMP_pressure;BME280_temperature;BME280_humidity;BME280_pressure;Samples;Min_cycle;Max_cycle;Signal;HPM_P1;HPM_P2
2022/10/11 00:00:43;;;;;;;3.38;2.15;;;11.00;99.90;;;;;;5026765;28;20026;-60
2022/10/11 00:03:09;;;;;;;6.63;2.25;;;11.00;99.90;;;;;;5047034;28;20508;-60
2022/10/11 00:05:35;;;;;;;5.22;2.20;;;10.90;99.90;;;;;;5026538;28;20061;-60
2022/10/11 00:08:04;;;;;;;5.55;2.53;;;10.80;99.90;;;;;;5047400;28;20029;-60
2022/10/11 00:10:30;;;;;;;6.15;1.95;;;10.80;99.90;;;;;;5035985;28;20082;-60
2022/10/11 00:12:55;;;;;;;5.45;2.20;;;10.70;99.90;;;;;;5028308;28;20057;-60
2022/10/11 00:15:22;;;;;;;4.10;2.03;;;10.60;99.90;;;;;;5044942;28;20029;-60
2022/10/11 00:17:47;;;;;;;4.05;1.98;;;10.50;99.90;;;;;;5028323;28;20029;-60
2022/10/11 00:20:13;;;;;;;4.05;1.88;;;10.50;99.90;;;;;;5045045;28;20044;-60
2022/10/11 00:22:39;;;;;;;3.80;1.60;;;10.40;99.90;;;;;;5027005;28;20034;-57
2022/10/11 00:25:07;;;;;;;3.72;1.65;;;10.30;99.90;;;;;;5045549;28;20060;-60
2022/10/11 00:27:33;;;;;;;6.18;1.83;;;10.20;99.90;;;;;;5047615;28;20037;-61
2022/10/11 00:29:59;;;;;;;4.65;1.50;;;10.20;99.90;;;;;;5032715;28;20041;-60
2022/10/11 00:32:25;;;;;;;4.05;1.63;;;10.10;99.90;;;;;;5047479;28;20031;-60
2022/10/11 00:34:50;;;;;;;3.22;1.60;;;10.00;99.90;;;;;;5031245;28;20040;-60
2022/10/11 00:37:16;;;;;;;5.70;2.03;;;10.00;99.90;;;;;;5047711;28;20033;-59
2022/10/11 00:39:42;;;;;;;5.75;1.63;;;9.90;99.90;;;;;;5031928;28;20178;-61
2022/10/11 00:42:12;;;;;;;3.13;1.80;;;9.90;99.90;;;;;;5051404;28;20349;-60
2022/10/11 00:44:41;;;;;;;5.32;1.70;;;9.80;99.90;;;;;;5032567;28;20025;-60
2022/10/11 00:47:10;;;;;;;6.13;1.52;;;9.70;99.90;;;;;;5051307;28;20112;-60
2022/10/11 00:49:40;;;;;;;7.35;1.80;;;9.70;99.90;;;;;;5031949;28;20496;-60
2022/10/11 00:52:30;;;;;;;4.13;1.48;;;9.60;99.90;;;;;;5051090;28;20032;-60
2022/10/11 00:55:01;;;;;;;5.25;1.52;;;9.50;99.90;;;;;;5020178;28;20037;-60
2022/10/11 00:57:32;;;;;;;3.45;1.50;;;9.50;99.90;;;;;;5051532;28;20025;-60
2022/10/11 00:59:58;;;;;;;2.45;1.27;;;9.40;99.90;;;;;;5020354;28;20030;-60
2022/10/11 01:02:25;;;;;;;3.85;1.13;;;9.40;99.90;;;;;;5040252;28;20073;-60
2022/10/11 01:04:51;;;;;;;3.90;1.35;;;9.30;99.90;;;;;;5048296;28;20406;-60
2022/10/11 01:07:18;;;;;;;6.13;1.27;;;9.30;99.90;;;;;;5051146;28;20017;-60
2022/10/11 01:09:44;;;;;;;6.10;1.50;;;9.20;99.90;;;;;;5032532;28;20032;-60
2022/10/11 01:12:17;;;;;;;4.00;1.38;;;9.20;99.90;;;;;;5050754;28;20021;-60
2022/10/11 01:15:12;;;;;;;4.85;1.80;;;9.10;99.90;;;;;;5031890;28;20025;-60
2022/10/11 01:18:21;;;;;;;6.75;1.52;;;9.00;99.90;;;;;;5050857;28;20412;-60
2022/10/11 01:20:49;;;;;;;2.45;1.10;;;8.90;99.90;;;;;;5031785;28;20055;-60
2022/10/11 01:23:59;;;;;;;3.03;1.40;;;8.90;99.90;;;;;;5031331;28;20033;-61
2022/10/11 01:26:43;;;;;;;6.28;1.65;;;8.80;99.90;;;;;;5025599;28;20033;-60
2022/10/11 01:29:42;;;;;;;7.03;1.38;;;8.70;99.90;;;;;;5049483;28;20100;-60
2022/10/11 01:32:26;;;;;;;3.30;1.30;;;8.70;99.90;;;;;;4993079;28;20068;-60
2022/10/11 01:35:02;;;;;;;6.00;1.88;;;8.60;99.90;;;;;;5015796;28;20029;-61
2022/10/11 01:37:33;;;;;;;;;;;8.60;99.90;;;;;;5050813;28;20025;-60
2022/10/11 01:40:24;;;;;;;4.68;1.13;;;8.50;99.90;;;;;;5031971;28;19909;-60
2022/10/11 01:42:51;;;;;;;3.70;1.25;;;8.50;99.90;;;;;;5050299;28;20024;-60
2022/10/11 01:45:18;;;;;;;4.88;1.20;;;8.40;99.90;;;;;;5035395;28;20112;-60
2022/10/11 01:47:47;;;;;;;4.32;1.15;;;8.40;99.90;;;;;;5050404;28;20078;-61
2022/10/11 01:50:34;;;;;;;8.10;1.58;;;8.30;99.90;;;;;;5034093;28;20025;-60
2022/10/11 01:53:20;;;;;;;8.70;1.45;;;8.30;99.90;;;;;;5030867;28;20029;-61
2022/10/11 01:55:52;;;;;;;3.55;1.02;;;8.20;99.90;;;;;;5029509;28;20111;-60
2022/10/11 01:58:52;;;;;;;6.38;1.17;;;8.20;99.90;;;;;;5030137;28;20057;-60
2022/10/11 02:01:36;;;;;;;4.05;1.30;;;8.10;99.90;;;;;;5035761;28;20072;-60
2022/10/11 02:04:07;;;;;;;3.15;1.15;;;8.10;99.90;;;;;;5030393;28;20029;-60
2022/10/11 02:06:53;;;;;;;6.05;1.27;;;8.10;99.90;;;;;;5024849;28;20026;-61
2022/10/11 02:09:34;;;;;;;6.15;1.90;;;8.00;99.90;;;;;;5009979;28;20022;-60
2022/10/11 02:12:08;;;;;;;8.10;1.20;;;8.00;99.90;;;;;;5010309;28;20026;-60
2022/10/11 02:14:41;;;;;;;4.47;1.50;;;8.00;99.90;;;;;;5006799;28;20164;-59
2022/10/11 02:17:12;;;;;;;6.05;1.25;;;7.90;99.90;;;;;;5009904;28;20076;-60
2022/10/11 02:19:41;;;;;;;5.10;1.50;;;7.90;99.90;;;;;;5008620;28;20161;-60
2022/10/11 02:22:12;;;;;;;4.25;1.15;;;7.90;99.90;;;;;;5049584;28;20504;-60
2022/10/11 02:24:41;;;;;;;6.25;1.30;;;7.90;99.90;;;;;;5001163;28;20330;-59
2022/10/11 02:27:09;;;;;;;7.03;1.25;;;7.80;99.90;;;;;;5049671;28;20488;-60
2022/10/11 02:29:38;;;;;;;4.32;0.88;;;7.80;99.90;;;;;;5029532;28;20034;-60
2022/10/11 02:32:05;;;;;;;9.18;1.17;;;7.70;99.90;;;;;;5049294;28;20040;-60
2022/10/11 02:34:36;;;;;;;5.75;1.48;;;7.70;99.90;;;;;;5029901;28;20121;-60
2022/10/11 02:37:43;;;;;;;5.68;1.20;;;7.60;99.90;;;;;;5027496;28;20044;-61
2022/10/11 02:40:18;;;;;;;7.70;1.50;;;7.60;99.90;;;;;;5018394;28;20251;-61
2022/10/11 02:42:48;;;;;;;6.22;1.67;;;7.60;99.90;;;;;;5049316;28;20029;-61
2022/10/11 02:45:16;;;;;;;5.25;1.55;;;7.50;99.90;;;;;;5016847;28;20074;-59
2022/10/11 02:47:42;;;;;;;4.80;1.52;;;7.40;99.90;;;;;;5049214;28;20025;-60
2022/10/11 02:50:10;;;;;;;5.57;2.45;;;7.40;99.90;;;;;;5031153;28;20033;-60
2022/10/11 02:52:35;;;;;;;7.45;1.42;;;7.40;99.90;;;;;;5048857;28;20039;-60
2022/10/11 02:55:01;;;;;;;5.47;1.92;;;7.40;99.90;;;;;;5029147;28;20515;-60
2022/10/11 02:57:26;;;;;;;4.20;1.63;;;7.40;99.90;;;;;;5048952;28;20233;-61
2022/10/11 02:59:52;;;;;;;6.85;1.67;;;7.30;99.90;;;;;;5028510;28;20018;-60
2022/10/11 03:02:17;;;;;;;5.75;1.40;;;7.30;99.90;;;;;;5038214;28;20041;-60
2022/10/11 03:04:43;;;;;;;3.95;1.50;;;7.30;99.90;;;;;;5047939;28;20021;-60
2022/10/11 03:07:08;;;;;;;3.65;1.58;;;7.30;99.90;;;;;;5046772;28;20024;-60
2022/10/11 03:09:34;;;;;;;4.60;1.50;;;7.20;99.90;;;;;;5029142;28;20129;-60
2022/10/11 03:11:59;;;;;;;5.90;1.40;;;7.20;99.90;;;;;;5027888;28;20540;-61
2022/10/11 03:14:25;;;;;;;7.53;1.50;;;7.20;99.90;;;;;;5047596;28;20021;-60
2022/10/11 03:16:50;;;;;;;6.97;1.60;;;7.20;99.90;;;;;;5027185;28;20026;-60
2022/10/11 03:19:16;;;;;;;6.55;1.40;;;7.20;99.90;;;;;;5047834;28;20029;-60
2022/10/11 03:21:41;;;;;;;4.85;1.45;;;7.20;99.90;;;;;;5027232;28;20026;-61
2022/10/11 03:24:07;;;;;;;4.75;1.30;;;7.20;99.90;;;;;;5041260;28;20123;-53
2022/10/11 03:26:32;;;;;;;7.03;1.50;;;7.20;99.90;;;;;;5027504;28;20037;-54
2022/10/11 03:28:58;;;;;;;5.90;1.55;;;7.20;99.90;;;;;;5047716;28;20025;-51
2022/10/11 03:31:23;;;;;;;3.47;1.70;;;7.10;99.90;;;;;;5026956;28;20029;-53
2022/10/11 03:33:49;;;;;;;5.18;1.20;;;7.10;99.90;;;;;;5047673;28;20033;-57
2022/10/11 03:36:14;;;;;;;7.80;1.05;;;7.10;99.90;;;;;;5027086;28;20025;-58
2022/10/11 03:38:40;;;;;;;7.68;1.65;;;7.10;99.90;;;;;;5047367;28;20035;-57
2022/10/11 03:41:06;;;;;;;2.88;1.38;;;7.10;99.90;;;;;;5037012;28;20044;-58
2022/10/11 03:43:33;;;;;;;10.73;1.65;;;7.10;99.90;;;;;;5028751;28;20056;-57
2022/10/11 03:45:59;;;;;;;10.60;1.80;;;7.10;99.90;;;;;;5045963;28;20028;-60
2022/10/11 03:48:25;;;;;;;7.88;1.80;;;7.10;99.90;;;;;;5028607;28;20037;-53
2022/10/11 03:50:50;;;;;;;5.93;1.40;;;7.10;99.90;;;;;;5045307;28;20112;-50
2022/10/11 03:53:16;;;;;;;8.55;2.03;;;7.10;99.90;;;;;;5028701;28;20431;-52
2022/10/11 03:55:41;;;;;;;6.93;1.70;;;7.10;99.90;;;;;;5045203;28;20025;-54
2022/10/11 03:58:08;;;;;;;7.28;1.13;;;7.10;99.90;;;;;;5047593;28;20050;-53
2022/10/11 04:00:34;;;;;;;5.72;1.25;;;7.00;99.90;;;;;;5031947;28;20024;-52
2022/10/11 04:02:59;;;;;;;6.93;1.40;;;7.00;99.90;;;;;;5032763;28;20061;-54
2022/10/11 04:05:25;;;;;;;5.90;1.55;;;7.00;99.90;;;;;;5045249;28;20037;-50
2022/10/11 04:07:50;;;;;;;7.75;1.55;;;7.00;99.90;;;;;;5048029;28;20374;-51
2022/10/11 04:10:16;;;;;;;7.18;1.90;;;7.00;99.90;;;;;;5029330;28;20036;-55
2022/10/11 04:12:42;;;;;;;13.90;2.72;;;6.90;99.90;;;;;;5048006;28;20075;-55
2022/10/11 04:15:12;;;;;;;13.23;2.20;;;6.90;99.90;;;;;;5030750;28;20112;-51
2022/10/11 04:17:37;;;;;;;11.27;1.83;;;7.00;99.90;;;;;;5051891;28;20056;-53
2022/10/11 04:20:03;;;;;;;12.05;1.80;;;6.90;99.90;;;;;;5031147;28;20056;-51
2022/10/11 04:22:29;;;;;;;8.18;2.33;;;6.90;99.90;;;;;;5045903;28;20108;-54
2022/10/11 04:24:54;;;;;;;10.07;1.95;;;6.90;99.90;;;;;;5028734;28;20116;-55
2022/10/11 04:27:20;;;;;;;6.38;2.10;;;6.80;99.90;;;;;;5049595;28;20033;-52
2022/10/11 04:29:45;;;;;;;4.35;1.55;;;6.80;99.90;;;;;;5032382;28;20033;-51
2022/10/11 04:32:11;;;;;;;9.60;1.77;;;6.80;99.90;;;;;;5031276;28;20071;-53
2022/10/11 04:34:36;;;;;;;7.82;2.00;;;6.70;99.90;;;;;;5050912;28;20059;-53
2022/10/11 04:37:02;;;;;;;6.05;1.88;;;6.70;99.90;;;;;;5030417;28;20513;-53
2022/10/11 04:39:27;;;;;;;8.13;2.45;;;6.70;99.90;;;;;;5050927;28;20033;-50
2022/10/11 04:41:53;;;;;;;13.35;2.28;;;6.60;99.90;;;;;;5030244;28;20596;-52
2022/10/11 04:44:18;;;;;;;8.35;2.20;;;6.60;99.90;;;;;;5050636;28;20025;-51
2022/10/11 04:46:44;;;;;;;8.93;2.90;;;6.50;99.90;;;;;;5030456;28;20033;-54
2022/10/11 04:49:09;;;;;;;9.18;2.80;;;6.50;99.90;;;;;;5050706;28;20259;-53
2022/10/11 04:51:35;;;;;;;9.43;2.72;;;6.40;99.90;;;;;;5029964;28;20048;-53
2022/10/11 04:54:00;;;;;;;10.10;2.88;;;6.40;99.90;;;;;;5050710;28;20029;-52
2022/10/11 04:56:26;;;;;;;7.22;2.78;;;6.30;99.90;;;;;;5028405;28;20034;-53
2022/10/11 04:58:53;;;;;;;12.82;3.35;;;6.30;99.90;;;;;;5050277;28;20047;-54
2022/10/11 05:01:19;;;;;;;10.75;3.10;;;6.20;99.90;;;;;;5035932;28;20028;-52
2022/10/11 05:03:45;;;;;;;12.93;2.40;;;6.20;99.90;;;;;;5029633;28;20036;-54
2022/10/11 05:06:10;;;;;;;8.55;2.90;;;6.10;99.90;;;;;;5036045;28;20119;-54
2022/10/11 05:08:36;;;;;;;7.38;2.88;;;6.10;99.90;;;;;;5039308;28;20047;-50
2022/10/11 05:11:09;;;;;;;9.43;3.33;;;6.00;99.90;;;;;;5035799;28;20037;-49
2022/10/11 05:13:35;;;;;;;13.13;2.97;;;6.00;99.90;;;;;;5046537;28;20021;-52
2022/10/11 05:16:02;;;;;;;9.50;3.08;;;5.90;99.90;;;;;;5035056;28;20021;-54
2022/10/11 05:18:29;;;;;;;11.00;2.67;;;5.90;99.90;;;;;;5049465;28;20120;-50
2022/10/11 05:21:21;;;;;;;11.45;2.58;;;5.80;99.90;;;;;;5034084;28;20595;-50
2022/10/11 05:23:48;;;;;;;9.57;2.50;;;5.80;99.90;;;;;;5023576;28;20458;-51
2022/10/11 05:26:14;;;;;;;6.75;3.13;;;5.80;99.90;;;;;;5045343;28;20033;-52
2022/10/11 05:28:40;;;;;;;10.35;3.10;;;5.90;99.90;;;;;;5028437;28;20107;-51
2022/10/11 05:31:05;;;;;;;5.22;2.58;;;5.90;99.90;;;;;;5044076;28;20057;-53
2022/10/11 05:33:31;;;;;;;9.00;3.10;;;5.90;99.90;;;;;;5048241;28;20036;-49
2022/10/11 05:35:57;;;;;;;11.85;3.25;;;5.90;99.90;;;;;;5032785;28;20044;-49
2022/10/11 05:38:22;;;;;;;9.70;2.50;;;6.00;99.90;;;;;;5031590;28;20055;-48
2022/10/11 05:40:48;;;;;;;12.02;2.50;;;6.00;99.90;;;;;;5047838;28;20096;-50
2022/10/11 05:43:14;;;;;;;11.30;2.20;;;6.10;99.90;;;;;;5050547;28;20036;-49
2022/10/11 05:45:41;;;;;;;3.67;2.28;;;6.10;99.90;;;;;;5031738;28;20075;-49
2022/10/11 05:48:08;;;;;;;11.20;2.83;;;6.20;99.90;;;;;;5050027;28;20128;-48
2022/10/11 05:50:34;;;;;;;9.38;2.78;;;6.20;99.90;;;;;;5030464;28;20112;-50
2022/10/11 05:53:00;;;;;;;9.85;3.58;;;6.20;99.90;;;;;;5050305;28;20457;-49
2022/10/11 05:55:25;;;;;;;11.45;3.30;;;6.30;99.90;;;;;;5029238;28;20060;-49
2022/10/11 05:57:53;;;;;;;12.93;3.58;;;6.30;99.90;;;;;;5049595;28;20052;-49
2022/10/11 06:00:18;;;;;;;7.72;2.58;;;6.40;99.90;;;;;;5030112;28;20076;-51
2022/10/11 06:02:44;;;;;;;6.20;3.13;;;6.50;99.90;;;;;;5047719;28;20049;-49
2022/10/11 06:05:09;;;;;;;14.25;3.90;;;6.60;99.90;;;;;;5030103;28;20083;-50
2022/10/11 06:07:36;;;;;;;7.95;2.92;;;6.70;99.90;;;;;;5027125;28;20037;-47
2022/10/11 06:10:02;;;;;;;9.82;2.78;;;7.10;99.90;;;;;;5049129;28;20043;-49
2022/10/11 06:12:29;;;;;;;8.10;2.63;;;7.40;99.90;;;;;;5026919;28;20087;-50
2022/10/11 06:14:55;;;;;;;6.75;2.40;;;7.90;99.90;;;;;;5048729;28;20028;-50
2022/10/11 06:17:21;;;;;;;11.15;3.17;;;8.40;99.90;;;;;;5027997;28;20041;-48
2022/10/11 06:19:46;;;;;;;5.72;2.60;;;8.80;99.90;;;;;;5049111;28;20108;-51
2022/10/11 06:22:12;;;;;;;6.63;2.50;;;9.30;99.90;;;;;;5027999;28;20053;-52
2022/10/11 06:24:37;;;;;;;3.72;2.03;;;9.80;99.90;;;;;;5042636;28;20485;-48
2022/10/11 06:27:03;;;;;;;5.85;2.25;;;10.20;99.90;;;;;;5028129;28;20029;-53
2022/10/11 06:29:28;;;;;;;7.13;2.13;;;10.50;99.90;;;;;;5048442;28;20107;-51
2022/10/11 06:31:54;;;;;;;8.27;2.53;;;10.90;99.90;;;;;;5027976;28;20033;-49
2022/10/11 06:34:19;;;;;;;3.92;2.42;;;11.10;99.90;;;;;;5048165;28;20036;-51
2022/10/11 06:36:45;;;;;;;7.85;2.33;;;11.50;99.90;;;;;;5038549;28;20033;-50
2022/10/11 06:39:10;;;;;;;6.53;2.17;;;11.90;99.90;;;;;;5029644;28;20033;-49
2022/10/11 06:41:36;;;;;;;4.95;1.95;;;12.20;99.90;;;;;;5046153;28;20313;-50
2022/10/11 06:44:01;;;;;;;3.72;1.70;;;12.40;99.90;;;;;;5029697;28;20079;-48
2022/10/11 06:46:27;;;;;;;7.25;2.80;;;12.60;99.90;;;;;;5046171;28;20021;-48
2022/10/11 06:48:55;;;;;;;6.13;2.63;;;12.70;99.90;;;;;;5029316;28;20117;-48
2022/10/11 06:51:21;;;;;;;9.65;3.53;;;12.80;99.90;;;;;;5046340;28;20110;-48
2022/10/11 06:53:51;;;;;;;6.72;3.15;;;12.90;99.90;;;;;;5048985;28;20043;-49
2022/10/11 06:56:17;;;;;;;10.75;4.45;;;12.90;99.90;;;;;;5033566;28;20031;-47
2022/10/11 06:58:43;;;;;;;9.00;3.88;;;12.80;99.90;;;;;;5048625;28;20488;-46
2022/10/11 07:01:12;;;;;;;11.73;4.22;;;12.80;99.90;;;;;;5032162;28;20056;-47
2022/10/11 07:03:38;;;;;;;9.60;4.95;;;12.90;99.90;;;;;;5048669;28;20032;-45
2022/10/11 07:06:15;;;;;;;11.07;4.85;;;13.00;99.90;;;;;;5031349;28;20436;-45
2022/10/11 07:08:40;;;;;;;7.45;3.75;;;13.10;99.90;;;;;;5048433;28;20035;-46
2022/10/11 07:11:12;;;;;;;8.23;3.47;;;13.20;99.90;;;;;;5030318;28;20104;-45
2022/10/11 07:13:38;;;;;;;4.22;2.67;;;13.30;99.90;;;;;;5048355;28;20071;-48
2022/10/11 07:16:06;;;;;;;7.90;3.25;;;13.40;99.90;;;;;;5030953;28;20033;-46
2022/10/11 07:18:32;;;;;;;7.72;3.15;;;13.60;99.90;;;;;;5048323;28;20041;-47
2022/10/11 07:21:01;;;;;;;7.45;2.85;;;13.60;99.90;;;;;;5029942;28;20112;-46
2022/10/11 07:23:26;;;;;;;7.85;2.78;;;13.70;98.20;;;;;;5029293;28;20021;-45
2022/10/11 07:25:53;;;;;;;8.45;2.55;;;13.80;99.90;;;;;;5045371;28;20381;-48
2022/10/11 07:28:23;;;;;;;7.57;2.67;;;14.00;99.90;;;;;;5048085;28;20496;-45
2022/10/11 07:30:48;;;;;;;8.60;2.65;;;14.10;99.90;;;;;;5027567;28;20040;-45
2022/10/11 07:33:14;;;;;;;13.52;2.58;;;14.10;99.90;;;;;;5048349;28;20025;-57
2022/10/11 07:35:39;;;;;;;5.65;2.08;;;14.20;99.90;;;;;;5026631;28;20029;-57
2022/10/11 07:38:05;;;;;;;10.98;3.08;;;14.30;99.90;;;;;;5047880;28;20017;-57
2022/10/11 07:40:33;;;;;;;6.63;2.63;;;14.20;98.80;;;;;;5028725;28;20034;-57
2022/10/11 07:42:59;;;;;;;5.03;2.08;;;14.30;99.90;;;;;;5026777;28;20036;-57
2022/10/11 07:45:27;;;;;;;7.55;2.75;;;14.40;99.90;;;;;;5047174;28;20045;-57
2022/10/11 07:47:57;;;;;;;6.53;2.28;;;14.50;99.90;;;;;;5026421;28;20120;-58
2022/10/11 07:50:23;;;;;;;7.88;2.20;;;14.70;99.90;;;;;;5047020;28;20036;-57
2022/10/11 07:52:49;;;;;;;6.07;2.40;;;14.80;99.90;;;;;;5025355;28;20390;-58
2022/10/11 07:55:15;;;;;;;5.20;2.58;;;14.70;98.60;;;;;;5047294;28;20040;-57
2022/10/11 07:57:40;;;;;;;4.10;1.85;;;14.80;98.30;;;;;;5026345;28;20045;-57
2022/10/11 08:00:07;;;;;;;3.85;1.83;;;15.00;99.90;;;;;;5046933;28;20025;-58
2022/10/11 08:02:32;;;;;;;5.45;2.55;;;15.20;99.90;;;;;;5026333;28;20056;-57
2022/10/11 08:04:58;;;;;;;6.03;2.65;;;15.30;98.70;;;;;;5047189;28;20385;-58
2022/10/11 08:07:41;;;;;;;7.75;2.25;;;15.40;98.80;;;;;;5021737;28;20049;-58
2022/10/11 08:10:07;;;;;;;6.57;2.63;;;15.60;99.90;;;;;;5046874;28;20041;-57
2022/10/11 08:12:33;;;;;;;7.53;2.33;;;15.50;96.10;;;;;;5026326;28;20110;-58
2022/10/11 08:14:59;;;;;;;4.93;1.83;;;15.50;98.00;;;;;;5047010;28;20093;-57
2022/10/11 08:17:25;;;;;;;6.13;2.50;;;15.60;96.50;;;;;;5026305;28;20033;-58
2022/10/11 08:19:51;;;;;;;4.65;2.20;;;15.60;97.80;;;;;;5046961;28;20466;-57
2022/10/11 08:22:16;;;;;;;7.13;2.40;;;15.80;98.00;;;;;;5026601;28;20030;-56
2022/10/11 08:24:42;;;;;;;8.20;2.45;;;15.90;97.70;;;;;;5041029;28;20029;-58
2022/10/11 08:27:07;;;;;;;6.60;1.95;;;16.00;96.30;;;;;;5037062;28;20313;-58
2022/10/11 08:29:33;;;;;;;3.90;2.00;;;16.10;95.90;;;;;;5027978;28;20025;-57
2022/10/11 08:31:58;;;;;;;3.50;1.75;;;16.30;96.70;;;;;;5044968;28;20029;-58
2022/10/11 08:34:24;;;;;;;4.47;1.92;;;16.50;96.60;;;;;;5027891;28;20579;-58
2022/10/11 08:36:49;;;;;;;3.90;2.42;;;16.50;95.10;;;;;;5044793;28;20128;-58
2022/10/11 08:39:15;;;;;;;5.97;2.47;;;16.60;94.20;;;;;;5028401;28;20401;-57
2022/10/11 08:41:50;;;;;;;6.63;2.28;;;16.70;92.70;;;;;;5044540;28;20107;-58
2022/10/11 08:44:41;;;;;;;7.85;2.25;;;16.80;90.40;;;;;;5047525;28;20484;-57
2022/10/11 08:47:19;;;;;;;3.30;1.98;;;16.90;90.50;;;;;;5025884;28;20704;-58
2022/10/11 08:49:45;;;;;;;5.47;1.73;;;17.00;89.90;;;;;;5006658;28;20057;-57
2022/10/11 08:52:20;;;;;;;5.22;2.22;;;17.10;91.00;;;;;;5044164;28;20036;-58
2022/10/11 08:54:52;;;;;;;8.02;2.28;;;17.20;87.90;;;;;;5007884;28;20045;-58
2022/10/11 08:57:20;;;;;;;6.30;1.98;;;17.20;83.10;;;;;;5028240;28;20072;-57
2022/10/11 08:59:56;;;;;;;6.07;2.15;;;17.20;82.20;;;;;;5027387;28;20030;-57
2022/10/11 09:02:30;;;;;;;5.65;2.25;;;17.30;82.00;;;;;;5036152;28;20252;-58
2022/10/11 09:04:56;;;;;;;5.72;1.80;;;17.40;80.80;;;;;;5011173;28;20121;-58
2022/10/11 09:07:56;;;;;;;4.43;2.10;;;17.50;80.10;;;;;;5035897;28;20105;-57
2022/10/11 09:10:40;;;;;;;5.97;1.73;;;17.60;70.10;;;;;;5010963;28;20042;-57
2022/10/11 09:13:29;;;;;;;8.15;2.17;;;17.70;76.50;;;;;;5026561;28;20030;-58
2022/10/11 09:16:20;;;;;;;4.15;2.00;;;17.70;71.80;;;;;;5011007;28;20038;-58
2022/10/11 09:19:17;;;;;;;4.78;2.08;;;17.90;66.70;;;;;;5011125;28;20037;-57
2022/10/11 09:22:10;;;;;;;2.72;1.42;;;17.90;67.40;;;;;;5020563;28;20543;-58
2022/10/11 09:25:02;;;;;;;6.93;1.85;;;18.00;69.30;;;;;;5023316;28;20033;-58
2022/10/11 09:27:39;;;;;;;7.63;1.85;;;18.10;58.60;;;;;;5032504;28;20029;-57
2022/10/11 09:30:09;;;;;;;4.85;1.70;;;18.10;67.50;;;;;;5010653;28;20030;-57
2022/10/11 09:32:48;;;;;;;5.18;1.80;;;18.20;66.70;;;;;;5021362;28;20041;-57
2022/10/11 09:35:17;;;;;;;3.75;1.75;;;18.20;64.80;;;;;;5010746;28;20497;-57
2022/10/11 09:38:00;;;;;;;6.10;1.95;;;18.20;63.30;;;;;;5034375;28;20115;-57
2022/10/11 09:41:06;;;;;;;4.78;1.77;;;18.20;61.60;;;;;;5010417;28;20034;-57
2022/10/11 09:43:31;;;;;;;6.45;2.05;;;18.10;55.70;;;;;;5010649;28;20036;-57
2022/10/11 09:45:57;;;;;;;5.30;1.63;;;18.10;58.80;;;;;;5048899;28;20116;-57
2022/10/11 09:48:30;;;;;;;5.70;1.50;;;18.00;58.20;;;;;;5028816;28;20025;-58
2022/10/11 09:51:03;;;;;;;3.78;1.70;;;18.00;56.50;;;;;;5010290;28;20430;-58
2022/10/11 09:54:03;;;;;;;8.00;1.50;;;17.90;56.30;;;;;;5028674;28;20067;-58
2022/10/11 09:56:30;;;;;;;3.30;1.33;;;17.90;50.00;;;;;;5014082;28;20029;-58
2022/10/11 09:59:34;;;;;;;6.97;1.70;;;17.70;54.20;;;;;;5049586;28;20029;-58
2022/10/11 10:02:11;;;;;;;8.68;1.83;;;17.60;49.10;;;;;;5014826;28;20455;-58
2022/10/11 10:04:52;;;;;;;4.25;1.50;;;17.50;53.10;;;;;;5030201;28;20032;-58
2022/10/11 10:07:18;;;;;;;6.47;1.38;;;17.40;51.80;;;;;;5046951;28;20090;-57
2022/10/11 10:09:44;;;;;;;11.13;2.30;;;17.30;51.80;;;;;;5030351;28;20453;-58
2022/10/11 10:12:19;;;;;;;4.93;2.00;;;17.20;52.00;;;;;;5046362;28;20090;-58
2022/10/11 10:14:54;;;;;;;6.33;1.80;;;17.10;48.20;;;;;;5010108;28;20401;-58
2022/10/11 10:17:20;;;;;;;3.25;1.30;;;17.00;51.60;;;;;;5026336;28;20032;-58
2022/10/11 10:19:51;;;;;;;4.72;1.50;;;17.00;52.20;;;;;;5030211;28;20033;-58
2022/10/11 10:22:24;;;;;;;6.93;1.48;;;16.90;52.40;;;;;;5046337;28;20473;-58
2022/10/11 10:24:50;;;;;;;4.78;1.40;;;16.90;51.60;;;;;;5026632;28;20088;-58
2022/10/11 10:27:26;;;;;;;4.88;1.65;;;16.70;50.50;;;;;;5046774;28;20029;-57
2022/10/11 10:30:12;;;;;;;2.22;1.38;;;16.60;50.20;;;;;;5009717;28;20365;-58
2022/10/11 10:32:52;;;;;;;3.88;1.25;;;16.40;48.80;;;;;;5030178;28;20045;-58
2022/10/11 10:35:43;;;;;;;3.47;1.33;;;16.30;50.20;;;;;;5009644;28;20095;-57
2022/10/11 10:38:32;;;;;;;6.20;1.50;;;16.20;46.90;;;;;;5013880;28;20292;-57
2022/10/11 10:41:01;;;;;;;2.97;1.38;;;16.00;46.10;;;;;;5009531;28;20026;-58
2022/10/11 10:43:32;;;;;;;6.80;1.88;;;15.90;49.10;;;;;;5027596;28;20040;-58
2022/10/11 10:46:19;;;;;;;4.75;1.30;;;15.90;48.50;;;;;;5009281;28;20030;-57
2022/10/11 10:49:12;;;;;;;8.35;1.90;;;15.90;50.20;;;;;;5009508;28;20081;-58
2022/10/11 10:51:50;;;;;;;5.68;1.75;;;16.00;48.70;;;;;;5012446;28;20615;-58
2022/10/11 10:54:37;;;;;;;7.57;1.70;;;16.00;47.00;;;;;;5048836;28;20063;-58
2022/10/11 10:57:11;;;;;;;3.83;1.27;;;16.00;46.10;;;;;;5018981;28;20401;-58
2022/10/11 11:00:09;;;;;;;3.03;1.27;;;16.00;47.10;;;;;;5048578;28;20039;-58
2022/10/11 11:02:48;;;;;;;7.65;1.80;;;16.00;45.40;;;;;;5019966;28;20045;-58
2022/10/11 11:05:43;;;;;;;4.93;1.38;;;15.80;45.50;;;;;;5009367;28;20509;-58
2022/10/11 11:08:35;;;;;;;4.40;1.58;;;15.80;46.30;;;;;;5021397;28;20470;-58
2022/10/11 11:11:31;;;;;;;5.47;1.75;;;15.80;47.20;;;;;;5009235;28;20029;-58
2022/10/11 11:14:13;;;;;;;5.82;1.30;;;15.80;46.00;;;;;;5008879;28;20036;-58
2022/10/11 11:16:53;;;;;;;5.80;1.38;;;15.90;46.60;;;;;;5011127;28;20469;-58
2022/10/11 11:19:54;;;;;;;3.30;1.33;;;16.10;46.10;;;;;;5048427;28;20252;-58
2022/10/11 11:22:41;;;;;;;4.55;1.52;;;16.20;41.20;;;;;;5021935;28;20045;-56
2022/10/11 11:25:20;;;;;;;;;;;16.30;42.20;;;;;;5008578;28;20110;-58
2022/10/11 11:28:01;;;;;;;8.70;1.73;;;16.40;41.80;;;;;;5046258;28;19912;-58
2022/10/11 11:31:18;;;;;;;6.30;1.38;;;16.40;44.80;;;;;;5008597;28;20437;-58
2022/10/11 11:34:14;;;;;;;7.80;1.27;;;16.40;44.30;;;;;;4988801;28;20582;-58
2022/10/11 11:36:49;;;;;;;5.13;1.30;;;16.40;43.90;;;;;;5010044;28;20033;-58
2022/10/11 11:39:29;;;;;;;5.85;1.83;;;16.40;44.00;;;;;;5048393;28;20061;-57
2022/10/11 11:41:59;;;;;;;8.98;1.70;;;16.30;44.00;;;;;;5013695;28;20163;-58
2022/10/11 11:44:37;;;;;;;9.60;2.08;;;16.00;43.00;;;;;;5048062;28;20021;-58
2022/10/11 11:47:30;;;;;;;6.65;1.30;;;15.90;44.70;;;;;;5015893;28;20039;-58
2022/10/11 11:50:21;;;;;;;2.28;1.30;;;15.70;46.50;;;;;;5048076;28;20445;-58
2022/10/11 11:52:55;;;;;;;4.93;1.23;;;15.60;47.30;;;;;;5036905;28;20053;-58
2022/10/11 11:55:32;;;;;;;3.58;1.02;;;15.60;47.80;;;;;;5008577;28;20026;-58
2022/10/11 11:58:31;;;;;;;3.92;1.38;;;15.60;46.30;;;;;;5029809;28;20033;-58
2022/10/11 12:01:18;;;;;;;2.40;1.70;;;15.60;47.60;;;;;;5008365;28;20030;-58
2022/10/11 12:03:53;;;;;;;4.03;1.30;;;15.70;47.60;;;;;;5024788;28;20041;-58
2022/10/11 12:06:21;;;;;;;4.60;1.13;;;15.90;47.30;;;;;;5008236;28;20616;-57
2022/10/11 12:08:56;;;;;;;5.75;1.83;;;15.90;46.90;;;;;;5027305;28;20033;-57
2022/10/11 12:11:37;;;;;;;4.43;1.10;;;16.00;46.00;;;;;;5008313;28;20033;-58
2022/10/11 12:14:17;;;;;;;6.40;1.00;;;16.00;45.80;;;;;;5008399;28;20545;-58
2022/10/11 12:17:21;;;;;;;6.38;1.30;;;15.90;45.10;;;;;;5008465;28;20389;-58
2022/10/11 12:20:14;;;;;;;2.85;0.90;;;15.90;46.20;;;;;;5048089;28;20033;-58
2022/10/11 12:22:48;;;;;;;7.13;1.75;;;15.80;46.10;;;;;;5031295;28;20057;-57
2022/10/11 12:25:13;;;;;;;7.72;1.80;;;15.70;46.50;;;;;;5026601;28;20433;-58
2022/10/11 12:27:44;;;;;;;6.20;1.80;;;15.70;46.90;;;;;;5044734;28;20033;-58
2022/10/11 12:30:45;;;;;;;7.65;1.90;;;15.70;47.20;;;;;;5028094;28;20040;-58
2022/10/11 12:33:24;;;;;;;4.63;1.45;;;15.60;45.80;;;;;;5032281;28;20107;-58
2022/10/11 12:35:53;;;;;;;6.60;1.10;;;15.60;46.10;;;;;;5042872;28;20038;-59
2022/10/11 12:38:24;;;;;;;4.18;1.50;;;15.60;46.70;;;;;;5035750;28;20033;-58
2022/10/11 12:40:53;;;;;;;4.15;1.33;;;15.60;47.20;;;;;;5051105;28;20040;-58
2022/10/11 12:43:27;;;;;;;5.70;2.03;;;15.60;47.60;;;;;;5029747;28;20021;-58
2022/10/11 12:45:52;;;;;;;6.75;3.50;;;15.60;47.80;;;;;;5011375;28;20042;-58
2022/10/11 12:48:44;;;;;;;7.25;3.35;;;15.60;48.00;;;;;;5034917;28;20558;-57
2022/10/11 12:51:37;;;;;;;4.63;1.88;;;15.50;46.50;;;;;;5051171;28;20025;-58
2022/10/11 12:54:34;;;;;;;4.97;1.85;;;15.50;47.70;;;;;;5029110;28;20033;-57
2022/10/11 12:57:08;;;;;;;3.83;1.20;;;15.40;48.70;;;;;;5013959;28;20474;-57
2022/10/11 12:59:37;;;;;;;3.65;1.50;;;15.30;48.60;;;;;;5051121;28;20120;-57
2022/10/11 13:02:20;;;;;;;5.57;1.80;;;15.30;48.90;;;;;;5034142;28;20045;-57
2022/10/11 13:04:46;;;;;;;7.53;1.42;;;15.30;49.00;;;;;;5050441;28;20039;-58
2022/10/11 13:07:22;;;;;;;6.43;1.75;;;15.40;48.90;;;;;;5033056;28;20507;-57
2022/10/11 13:09:51;;;;;;;;;;;15.50;49.10;;;;;;5051215;28;20083;-57
2022/10/11 13:12:24;;;;;;;3.42;1.15;;;15.60;48.70;;;;;;5033325;28;19909;-57
2022/10/11 13:15:08;;;;;;;6.80;1.83;;;15.70;48.90;;;;;;5050927;28;20047;-57
2022/10/11 13:17:37;;;;;;;4.85;1.23;;;15.60;46.60;;;;;;5021766;28;20500;-57